createdAt,value
2023-04-23T00:01:08.281Z,19.54
2023-04-23T00:06:30.291Z,19.51
2023-04-23T00:11:52.298Z,19.51
2023-04-23T00:17:14.269Z,19.48
2023-04-23T00:22:36.264Z,19.46
2023-04-23T00:27:58.259Z,19.42
2023-04-23T00:33:20.266Z,19.36
2023-04-23T00:38:42.267Z,19.27
2023-04-23T00:44:04.290Z,19.21
2023-04-23T00:49:28.277Z,19.16
2023-04-23T00:54:57.245Z,19.11
2023-04-23T01:00:20.312Z,19.00
2023-04-23T01:05:42.267Z,18.95
2023-04-23T01:11:04.306Z,18.90
2023-04-23T01:16:26.303Z,18.87
2023-04-23T01:21:48.252Z,18.84
2023-04-23T01:27:10.251Z,18.83
2023-04-23T01:32:32.297Z,18.80
2023-04-23T01:37:55.269Z,18.76
2023-04-23T01:43:17.279Z,18.73
2023-04-23T01:48:39.272Z,18.68
2023-04-23T01:54:08.248Z,18.66
2023-04-23T01:59:30.279Z,18.62
2023-04-23T02:04:53.268Z,18.57
2023-04-23T02:10:15.269Z,18.53
2023-04-23T02:15:39.272Z,18.49
2023-04-23T02:21:01.260Z,18.39
2023-04-23T02:26:23.265Z,18.37
2023-04-23T02:31:45.269Z,18.35
2023-04-23T02:37:07.284Z,18.32
2023-04-23T02:42:29.260Z,18.29
2023-04-23T02:47:51.320Z,18.26
2023-04-23T02:53:20.235Z,18.22
2023-04-23T02:58:42.293Z,18.19
2023-04-23T03:04:04.572Z,18.13
2023-04-23T03:09:26.332Z,18.07
2023-04-23T03:14:48.256Z,18.03
2023-04-23T03:20:13.265Z,17.96
2023-04-23T03:25:35.243Z,17.89
2023-04-23T03:30:57.277Z,17.86
2023-04-23T03:36:19.245Z,17.85
2023-04-23T03:41:41.261Z,17.83
2023-04-23T03:47:05.261Z,17.80
2023-04-23T03:52:27.254Z,17.77
2023-04-23T03:57:50.261Z,17.76
2023-04-23T04:03:15.353Z,17.63
2023-04-23T04:08:37.252Z,17.50
2023-04-23T04:13:59.260Z,17.36
2023-04-23T04:19:21.256Z,17.30
2023-04-23T04:24:43.486Z,17.22
2023-04-23T04:30:05.250Z,17.14
2023-04-23T04:35:27.229Z,17.15
2023-04-23T04:40:49.256Z,17.13
2023-04-23T04:46:11.233Z,17.07
2023-04-23T04:51:33.256Z,17.05
2023-04-23T04:56:55.228Z,17.01
2023-04-23T05:02:17.321Z,16.98
2023-04-23T05:07:39.245Z,16.87
2023-04-23T05:13:01.233Z,16.82
2023-04-23T05:18:23.239Z,16.72
2023-04-23T05:23:45.246Z,16.59
2023-04-23T05:29:07.222Z,16.40
2023-04-23T05:34:29.218Z,16.21
2023-04-23T05:39:51.237Z,16.08
2023-04-23T05:45:13.228Z,16.03
2023-04-23T05:50:35.216Z,15.99
2023-04-23T05:55:57.192Z,15.94
2023-04-23T06:01:19.198Z,15.92
2023-04-23T06:06:41.199Z,15.90
2023-04-23T06:12:03.228Z,15.91
2023-04-23T06:17:25.199Z,15.95
2023-04-23T06:22:47.206Z,16.02
2023-04-23T06:28:09.264Z,16.02
2023-04-23T06:33:46.204Z,16.09
2023-04-23T06:39:08.197Z,16.09
2023-04-23T06:44:30.196Z,16.09
2023-04-23T06:49:53.214Z,16.11
2023-04-23T06:55:22.227Z,16.15
2023-04-23T07:00:44.251Z,16.17
2023-04-23T07:06:08.192Z,16.09
2023-04-23T07:11:30.198Z,15.94
2023-04-23T07:16:52.235Z,15.93
2023-04-23T07:22:14.227Z,15.96
2023-04-23T07:27:36.225Z,16.00
2023-04-23T07:32:58.216Z,15.98
2023-04-23T07:38:20.201Z,15.99
2023-04-23T07:43:42.222Z,15.99
2023-04-23T07:49:04.214Z,15.96
2023-04-23T07:54:26.204Z,15.95
2023-04-23T07:59:48.221Z,15.96
2023-04-23T08:05:10.307Z,15.98
2023-04-23T08:10:32.211Z,15.94
2023-04-23T08:15:55.208Z,15.89
2023-04-23T08:21:19.204Z,15.78
2023-04-23T08:26:41.210Z,15.79
2023-04-23T08:32:03.243Z,15.82
2023-04-23T08:37:30.883Z,15.89
2023-04-23T08:43:10.200Z,15.98
2023-04-23T08:48:32.205Z,16.09
2023-04-23T08:54:08.196Z,16.16
2023-04-23T08:59:30.250Z,16.21
2023-04-23T09:04:53.558Z,16.28
2023-04-23T09:10:19.193Z,16.39
2023-04-23T09:15:45.183Z,16.47
2023-04-23T09:21:10.194Z,16.59
2023-04-23T09:26:34.188Z,16.69
2023-04-23T09:31:58.221Z,16.77
2023-04-23T09:37:21.163Z,16.83
2023-04-23T09:42:44.175Z,16.88
2023-04-23T09:48:07.297Z,16.97
2023-04-23T09:53:29.190Z,17.02
2023-04-23T09:58:51.184Z,17.05
2023-04-23T10:04:13.428Z,17.06
2023-04-23T10:09:36.150Z,17.07
2023-04-23T10:15:00.191Z,17.10
2023-04-23T10:20:23.187Z,17.11
2023-04-23T10:25:46.162Z,17.12
2023-04-23T10:31:08.217Z,17.13
2023-04-23T10:36:32.184Z,17.16
2023-04-23T10:41:56.152Z,17.19
2023-04-23T10:47:22.166Z,17.25
2023-04-23T10:52:46.161Z,17.32
2023-04-23T10:58:14.167Z,17.35
2023-04-23T11:03:51.291Z,17.42
2023-04-23T11:09:41.418Z,17.57
2023-04-23T11:15:04.195Z,17.74
2023-04-23T11:20:30.197Z,17.91
2023-04-23T11:25:55.178Z,18.10
2023-04-23T11:31:17.169Z,18.25
2023-04-23T11:36:39.177Z,18.35
2023-04-23T11:42:01.171Z,18.52
2023-04-23T11:47:25.154Z,18.58
2023-04-23T11:52:47.173Z,18.69
2023-04-23T11:58:11.166Z,18.86
2023-04-23T12:03:33.277Z,19.09
2023-04-23T12:08:55.198Z,19.27
2023-04-23T12:14:19.178Z,19.40
2023-04-23T12:19:43.387Z,19.50
2023-04-23T12:25:06.152Z,19.56
2023-04-23T12:30:28.154Z,19.70
2023-04-23T12:36:00.169Z,19.90
2023-04-23T12:41:22.153Z,20.06
2023-04-23T12:46:44.251Z,20.16
2023-04-23T12:52:12.124Z,20.26
2023-04-23T12:57:35.151Z,20.43
2023-04-23T13:02:57.280Z,20.56
2023-04-23T13:08:19.166Z,20.62
2023-04-23T13:13:41.156Z,20.71
2023-04-23T13:19:03.165Z,20.80
2023-04-23T13:24:25.170Z,20.92
2023-04-23T13:29:47.153Z,21.09
2023-04-23T13:35:11.151Z,21.30
2023-04-23T13:40:33.159Z,21.45
2023-04-23T13:45:55.198Z,21.51
2023-04-23T13:51:32.565Z,21.60
2023-04-23T13:57:03.150Z,21.72
2023-04-23T14:02:25.214Z,21.88
2023-04-23T14:07:47.152Z,22.03
2023-04-23T14:13:10.158Z,22.13
2023-04-23T14:18:32.145Z,22.22
2023-04-23T14:23:54.144Z,22.31
2023-04-23T14:29:22.129Z,22.41
2023-04-23T14:34:44.134Z,22.56
2023-04-23T14:40:06.151Z,22.59
2023-04-23T14:45:28.139Z,22.65
2023-04-23T14:50:50.146Z,22.80
2023-04-23T14:56:19.155Z,22.95
2023-04-23T15:01:41.183Z,23.05
2023-04-23T15:07:03.169Z,23.18
2023-04-23T15:13:00.169Z,23.32
2023-04-23T15:18:22.175Z,23.37
2023-04-23T15:23:47.145Z,23.48
2023-04-23T15:29:09.325Z,23.65
2023-04-23T15:34:31.143Z,23.82
2023-04-23T15:39:53.152Z,23.94
2023-04-23T15:45:19.133Z,24.07
2023-04-23T15:50:41.167Z,24.21
2023-04-23T15:56:10.186Z,24.33
2023-04-23T16:01:32.159Z,24.43
2023-04-23T16:06:54.141Z,24.51
2023-04-23T16:12:16.125Z,24.62
2023-04-23T16:17:38.224Z,24.73
2023-04-23T16:23:00.179Z,24.82
2023-04-23T16:28:22.166Z,24.92
2023-04-23T16:33:44.135Z,25.00
2023-04-23T16:39:06.133Z,25.01
2023-04-23T16:44:28.144Z,25.01
2023-04-23T16:49:50.165Z,24.97
2023-04-23T16:55:12.139Z,24.79
2023-04-23T17:00:34.174Z,24.56
2023-04-23T17:06:02.124Z,24.31
2023-04-23T17:11:24.133Z,24.06
2023-04-23T17:16:46.160Z,23.83
2023-04-23T17:22:08.134Z,23.59
2023-04-23T17:27:30.138Z,23.37
2023-04-23T17:32:52.154Z,23.16
2023-04-23T17:38:14.140Z,22.94
2023-04-23T17:43:38.141Z,22.75
2023-04-23T17:49:00.197Z,22.56
2023-04-23T17:54:22.148Z,22.39
2023-04-23T17:59:44.242Z,22.21
2023-04-23T18:05:06.144Z,22.05
2023-04-23T18:10:28.119Z,21.91
2023-04-23T18:15:50.376Z,21.77
2023-04-23T18:21:12.149Z,21.63
2023-04-23T18:26:34.149Z,21.51
2023-04-23T18:31:56.159Z,21.41
2023-04-23T18:37:23.125Z,21.29
2023-04-23T18:42:45.171Z,21.18
2023-04-23T18:48:16.181Z,21.09
2023-04-23T18:53:38.124Z,20.98
2023-04-23T18:59:00.146Z,20.90
2023-04-23T19:04:22.309Z,20.78
2023-04-23T19:09:44.460Z,20.70
2023-04-23T19:15:06.113Z,20.59
2023-04-23T19:20:28.130Z,20.50
2023-04-23T19:25:50.130Z,20.44
2023-04-23T19:31:12.177Z,20.38
2023-04-23T19:36:34.171Z,20.31
2023-04-23T19:41:56.128Z,20.28
2023-04-23T19:47:18.135Z,20.22
2023-04-23T19:52:40.134Z,20.04
2023-04-23T19:58:03.121Z,19.17
2023-04-23T20:03:25.282Z,18.13
2023-04-23T20:09:10.145Z,17.63
2023-04-23T20:14:32.108Z,17.19
2023-04-23T20:19:54.121Z,16.90
2023-04-23T20:25:16.145Z,16.74
2023-04-23T20:30:38.161Z,16.55
2023-04-23T20:36:00.178Z,16.38
2023-04-23T20:41:22.113Z,16.37
2023-04-23T20:46:46.121Z,16.32
2023-04-23T20:52:08.112Z,16.31
2023-04-23T20:57:45.112Z,16.43
2023-04-23T21:03:07.267Z,16.56
2023-04-23T21:08:29.107Z,16.62
2023-04-23T21:13:52.102Z,16.72
2023-04-23T21:19:14.099Z,16.74
2023-04-23T21:24:36.127Z,16.80
2023-04-23T21:29:58.125Z,16.82
2023-04-23T21:35:20.127Z,16.82
2023-04-23T21:40:42.137Z,16.81
2023-04-23T21:46:04.106Z,16.81
2023-04-23T21:51:26.090Z,16.81
2023-04-23T21:56:48.109Z,16.83
2023-04-23T22:02:10.187Z,16.81
2023-04-23T22:07:33.113Z,16.80
2023-04-23T22:12:56.110Z,16.76
2023-04-23T22:18:18.077Z,16.74
2023-04-23T22:23:40.107Z,16.72
2023-04-23T22:29:02.081Z,16.72
2023-04-23T22:34:26.105Z,16.68
2023-04-23T22:39:48.100Z,16.63
2023-04-23T22:45:10.108Z,16.59
2023-04-23T22:50:33.086Z,16.57
2023-04-23T22:55:56.095Z,16.55
2023-04-23T23:01:18.151Z,16.50
2023-04-23T23:06:40.086Z,16.47
2023-04-23T23:12:02.100Z,16.45
2023-04-23T23:17:24.136Z,16.44
2023-04-23T23:22:46.068Z,16.45
2023-04-23T23:28:08.087Z,16.41
2023-04-23T23:33:30.084Z,16.39
2023-04-23T23:38:52.078Z,16.36
2023-04-23T23:44:14.087Z,16.28
2023-04-23T23:49:36.082Z,16.23
2023-04-23T23:54:58.102Z,16.20
